Time;durP1;ratioP1;P1;durP2;ratioP2;P2;SDS_P1;SDS_P2;PMS_P1;PMS_P2;Temp;Humidity;BMP_temperature;BMP_pressure;BME280_temperature;BME280_humidity;BME280_pressure;Samples;Min_cycle;Max_cycle;Signal;HPM_P1;HPM_P2
2022/04/07 00:00:09;;;;;;;35.90;19.10;;;5.60;99.90;;;6.26;100.00;97571.25;5006238;28;128908;-63
2022/04/07 00:02:38;;;;;;;32.45;20.10;;;5.60;99.90;;;6.36;100.00;97575.44;5003267;28;119589;-64
2022/04/07 00:05:07;;;;;;;31.67;19.10;;;5.60;99.90;;;6.33;100.00;97570.72;5020430;28;120154;-63
2022/04/07 00:07:36;;;;;;;32.60;20.08;;;5.60;99.90;;;6.25;100.00;97571.59;5020613;28;129690;-62
2022/04/07 00:10:07;;;;;;;32.85;18.73;;;5.70;99.90;;;6.40;100.00;97570.94;5031706;27;129884;-63
2022/04/07 00:12:37;;;;;;;31.38;20.30;;;5.70;99.90;;;6.33;100.00;97561.81;5025114;27;122101;-64
2022/04/07 00:15:07;;;;;;;34.17;20.35;;;5.70;99.90;;;6.42;100.00;97571.44;5041458;27;122458;-62
2022/04/07 00:17:36;;;;;;;35.50;21.48;;;5.70;99.90;;;6.37;100.00;97570.84;5041010;27;130688;-63
2022/04/07 00:20:06;;;;;;;34.45;20.55;;;5.80;99.90;;;6.30;100.00;97572.16;5041138;27;129797;-63
2022/04/07 00:22:35;;;;;;;35.55;21.27;;;5.80;99.90;;;6.45;100.00;97568.06;5041376;27;120388;-62
2022/04/07 00:25:04;;;;;;;34.33;20.77;;;5.80;99.90;;;6.48;100.00;97562.03;5041070;27;119499;-63
2022/04/07 00:27:32;;;;;;;38.75;22.17;;;5.90;99.90;;;6.50;100.00;97559.00;5040864;27;130316;-62
2022/04/07 00:30:02;;;;;;;37.28;21.77;;;5.90;99.90;;;6.41;100.00;97561.75;5041264;27;129382;-62
2022/04/07 00:32:33;;;;;;;38.58;22.60;;;5.90;99.90;;;6.29;100.00;97564.41;5040783;27;119743;-63
2022/04/07 00:35:01;;;;;;;39.55;22.85;;;5.90;99.90;;;6.31;100.00;97551.41;5040995;27;119380;-63
2022/04/07 00:37:30;;;;;;;38.25;22.13;;;5.90;99.90;;;6.30;100.00;97549.81;5039721;27;130493;-62
2022/04/07 00:39:59;;;;;;;39.42;23.92;;;5.90;99.90;;;6.38;100.00;97556.25;5040652;27;129809;-62
2022/04/07 00:42:27;;;;;;;38.70;22.90;;;6.00;99.90;;;6.29;100.00;97559.81;5040828;27;119342;-62
2022/04/07 00:44:56;;;;;;;41.90;24.50;;;6.00;99.90;;;6.34;100.00;97549.94;5041009;27;120087;-62
2022/04/07 00:47:27;;;;;;;47.28;25.50;;;6.00;99.90;;;6.28;100.00;97543.97;5040608;27;129982;-62
2022/04/07 00:49:57;;;;;;;43.88;27.17;;;6.00;99.90;;;6.27;100.00;97537.78;5040471;27;129326;-63
2022/04/07 00:52:28;;;;;;;49.95;27.25;;;6.00;99.90;;;6.34;100.00;97556.09;5038809;27;119473;-63
2022/04/07 00:54:56;;;;;;;45.72;26.50;;;6.00;99.90;;;6.36;100.00;97548.50;5040767;27;119933;-63
2022/04/07 00:57:25;;;;;;;46.92;27.00;;;6.00;99.90;;;6.54;100.00;97543.72;5040528;27;129758;-62
2022/04/07 00:59:54;;;;;;;46.00;27.77;;;6.00;99.90;;;6.62;100.00;97539.38;5040268;27;129825;-64
2022/04/07 01:02:23;;;;;;;44.60;27.50;;;6.00;99.90;;;6.61;100.00;97538.59;5039523;27;122477;-63
2022/04/07 01:04:51;;;;;;;45.55;26.85;;;6.10;99.90;;;6.61;100.00;97540.50;5040274;27;122055;-63
2022/04/07 01:07:22;;;;;;;41.15;26.52;;;6.10;99.90;;;6.65;100.00;97544.09;5040124;27;129902;-62
2022/04/07 01:09:51;;;;;;;44.75;27.38;;;6.10;99.90;;;6.50;100.00;97547.41;5041969;27;129434;-62
2022/04/07 01:12:19;;;;;;;44.85;27.38;;;6.10;99.90;;;6.57;100.00;97543.06;5040328;27;120074;-63
2022/04/07 01:14:55;;;;;;;44.15;26.98;;;6.10;99.90;;;6.62;100.00;97529.38;5043339;27;119832;-64
2022/04/07 01:17:25;;;;;;;41.67;26.52;;;6.10;99.90;;;6.57;100.00;97532.28;5039828;27;130363;-64
2022/04/07 01:19:54;;;;;;;43.58;26.52;;;6.20;99.90;;;6.62;100.00;97534.78;5024964;27;129831;-64
2022/04/07 01:22:24;;;;;;;45.13;27.40;;;6.20;99.90;;;6.58;100.00;97538.47;5040194;27;119617;-64
2022/04/07 01:24:54;;;;;;;43.95;27.15;;;6.20;99.90;;;6.73;100.00;97539.72;5025204;27;119227;-63
2022/04/07 01:27:24;;;;;;;42.33;25.98;;;6.20;99.90;;;6.75;100.00;97521.34;5038556;27;130504;-63
2022/04/07 01:29:53;;;;;;;42.33;25.30;;;6.20;99.90;;;6.73;100.00;97524.34;5039947;27;129539;-62
2022/04/07 01:32:35;;;;;;;44.75;26.65;;;6.20;99.90;;;6.74;100.00;97520.53;5038797;27;119773;-64
2022/04/07 01:35:05;;;;;;;40.67;24.95;;;6.30;99.90;;;6.79;100.00;97523.03;5040322;27;119503;-63
2022/04/07 01:37:35;;;;;;;43.05;26.15;;;6.30;99.90;;;6.87;100.00;97520.53;5021761;27;130071;-63
2022/04/07 01:40:08;;;;;;;45.30;26.73;;;6.30;99.90;;;6.67;100.00;97525.69;5039740;27;129341;-62
2022/04/07 01:42:39;;;;;;;42.20;26.20;;;6.30;99.90;;;6.84;100.00;97514.72;5039978;27;120070;-63
2022/04/07 01:45:11;;;;;;;45.22;27.33;;;6.30;99.90;;;6.87;100.00;97513.22;5040405;27;119553;-63
2022/04/07 01:47:43;;;;;;;49.55;27.60;;;6.40;99.90;;;6.96;100.00;97502.34;5007971;27;129481;-64
2022/04/07 01:50:13;;;;;;;45.35;28.73;;;6.40;99.90;;;6.98;100.00;97513.59;5024285;27;128941;-64
2022/04/07 01:52:42;;;;;;;45.97;28.13;;;6.40;99.90;;;7.03;100.00;97510.69;5038370;27;122084;-63
2022/04/07 01:55:12;;;;;;;44.33;26.48;;;6.40;99.90;;;6.99;100.00;97515.16;5039819;27;121865;-63
2022/04/07 01:57:41;;;;;;;41.45;26.38;;;6.40;99.90;;;6.89;100.00;97523.69;5039259;27;129771;-63
2022/04/07 02:00:11;;;;;;;45.22;27.33;;;6.40;99.90;;;6.90;100.00;97507.16;5039180;27;129637;-64
2022/04/07 02:02:45;;;;;;;44.38;27.08;;;6.40;99.90;;;6.90;100.00;97503.69;5008174;27;118897;-63
2022/04/07 02:05:14;;;;;;;42.00;26.95;;;6.40;99.90;;;6.90;100.00;97501.78;5024405;27;119559;-63
2022/04/07 02:07:45;;;;;;;41.20;27.13;;;6.40;99.90;;;6.83;100.00;97483.47;5037994;27;129883;-63
2022/04/07 02:10:16;;;;;;;40.00;26.98;;;6.40;99.90;;;6.86;100.00;97494.69;5039753;27;130102;-64
2022/04/07 02:12:45;;;;;;;42.97;27.05;;;6.40;99.90;;;6.82;100.00;97491.88;5039447;27;119913;-63
2022/04/07 02:15:13;;;;;;;41.90;26.35;;;6.40;99.90;;;6.87;100.00;97483.56;5039647;27;119956;-64
2022/04/07 02:17:42;;;;;;;42.50;26.67;;;6.40;99.90;;;6.94;100.00;97480.34;5037588;27;130328;-63
2022/04/07 02:20:12;;;;;;;45.17;28.40;;;6.40;99.90;;;6.86;100.00;97489.31;5039880;27;130098;-63
2022/04/07 02:22:41;;;;;;;41.75;25.98;;;6.40;99.90;;;6.92;100.00;97485.25;5039311;27;119865;-62
2022/04/07 02:25:10;;;;;;;41.47;26.83;;;6.30;99.90;;;6.92;100.00;97482.56;5039238;27;119576;-62
2022/04/07 02:27:42;;;;;;;37.90;24.33;;;6.40;99.90;;;6.83;100.00;97485.38;5038843;27;130059;-63
2022/04/07 02:30:13;;;;;;;40.38;25.25;;;6.40;99.90;;;6.88;100.00;97487.06;5038901;27;129648;-63
2022/04/07 02:32:42;;;;;;;40.03;24.13;;;6.40;99.90;;;6.86;100.00;97483.91;5038894;27;119798;-64
2022/04/07 02:35:13;;;;;;;39.88;25.58;;;6.40;99.90;;;6.85;100.00;97477.75;5039786;27;119551;-63
2022/04/07 02:37:42;;;;;;;40.15;25.33;;;6.40;99.90;;;6.91;100.00;97475.63;5040549;27;129867;-64
2022/04/07 02:40:13;;;;;;;41.63;27.08;;;6.40;99.90;;;6.97;100.00;97479.66;5038894;27;130434;-63
2022/04/07 02:42:43;;;;;;;39.28;26.05;;;6.40;99.90;;;7.00;100.00;97487.09;5038178;27;122211;-62
2022/04/07 02:45:12;;;;;;;43.03;26.25;;;6.40;99.90;;;7.07;100.00;97470.34;5038968;27;122444;-64
2022/04/07 02:47:40;;;;;;;41.92;25.85;;;6.40;99.90;;;7.09;100.00;97471.56;5038759;27;129896;-63
2022/04/07 02:50:10;;;;;;;40.03;25.67;;;6.40;99.90;;;7.16;100.00;97482.56;5023442;27;128744;-64
2022/04/07 02:52:38;;;;;;;38.10;25.35;;;6.40;99.90;;;7.13;100.00;97469.75;5037701;27;120020;-63
2022/04/07 02:55:08;;;;;;;39.80;25.33;;;6.40;99.90;;;7.04;100.00;97477.19;5038871;27;119276;-63
2022/04/07 02:57:37;;;;;;;38.65;25.30;;;6.40;99.90;;;7.17;100.00;97475.28;5020475;27;130213;-65
2022/04/07 03:00:09;;;;;;;36.90;24.13;;;6.40;99.90;;;7.07;100.00;97465.72;5023895;27;128405;-63
2022/04/07 03:02:38;;;;;;;36.67;25.50;;;6.40;99.90;;;6.97;100.00;97474.28;5023895;27;119321;-63
2022/04/07 03:05:07;;;;;;;40.70;25.35;;;6.40;99.90;;;6.98;100.00;97471.25;5038960;27;119782;-64
2022/04/07 03:07:37;;;;;;;39.85;25.77;;;6.40;99.90;;;6.97;100.00;97463.47;5022442;27;129091;-63
2022/04/07 03:10:06;;;;;;;38.42;25.13;;;6.40;99.90;;;7.00;100.00;97454.72;5038484;27;129500;-62
2022/04/07 03:12:35;;;;;;;37.17;24.40;;;6.50;99.90;;;6.94;100.00;97458.75;5039028;27;120511;-63
2022/04/07 03:15:06;;;;;;;40.03;26.13;;;6.50;99.90;;;7.05;100.00;97456.41;5039187;27;119492;-63
2022/04/07 03:17:35;;;;;;;36.92;24.92;;;6.50;99.90;;;7.01;100.00;97453.59;5041310;27;130503;-63
2022/04/07 03:20:05;;;;;;;35.85;23.42;;;6.50;99.90;;;6.96;100.00;97456.50;5042742;27;129926;-64
2022/04/07 03:22:34;;;;;;;36.83;24.80;;;6.50;99.90;;;6.98;100.00;97454.25;5023947;27;119483;-64
2022/04/07 03:25:02;;;;;;;34.72;24.50;;;6.50;99.90;;;7.05;100.00;97454.50;5042535;27;119966;-64
2022/04/07 03:27:31;;;;;;;37.92;24.98;;;6.50;99.90;;;7.07;100.00;97452.22;5041893;27;130142;-64
2022/04/07 03:29:59;;;;;;;36.88;24.40;;;6.50;99.90;;;7.24;100.00;97450.44;5041904;27;130002;-64
2022/04/07 03:32:29;;;;;;;35.20;23.90;;;6.50;99.90;;;7.29;100.00;97452.88;5025499;27;120951;-64
2022/04/07 03:34:58;;;;;;;36.08;24.23;;;6.50;99.90;;;7.26;100.00;97454.38;5027045;27;121267;-63
2022/04/07 03:37:27;;;;;;;36.15;24.10;;;6.50;99.90;;;7.31;100.00;97450.66;5041573;27;130091;-63
2022/04/07 03:39:55;;;;;;;31.10;22.92;;;6.50;99.90;;;7.29;100.00;97450.19;5041725;27;129668;-63
2022/04/07 03:42:24;;;;;;;35.90;23.58;;;6.50;99.90;;;7.30;100.00;97443.69;5026819;27;119468;-61
2022/04/07 03:44:52;;;;;;;33.70;24.52;;;6.50;99.90;;;7.33;100.00;97441.06;5042050;27;119777;-64
2022/04/07 03:47:20;;;;;;;34.60;24.05;;;6.50;99.90;;;7.36;100.00;97439.63;5041586;27;130442;-63
2022/04/07 03:49:50;;;;;;;34.10;22.65;;;6.60;99.90;;;7.37;100.00;97433.09;5026872;27;129000;-63
2022/04/07 03:52:19;;;;;;;34.30;23.70;;;6.60;99.90;;;7.25;100.00;97435.81;5044548;27;119794;-61
2022/04/07 03:54:47;;;;;;;35.47;23.75;;;6.50;99.90;;;7.33;100.00;97432.97;5041599;27;119697;-61
2022/04/07 03:57:16;;;;;;;33.25;22.63;;;6.60;99.90;;;7.25;100.00;97435.81;5036852;27;129814;-61
2022/04/07 03:59:45;;;;;;;32.30;23.15;;;6.60;99.90;;;7.33;100.00;97426.81;5039904;27;130217;-61
2022/04/07 04:02:14;;;;;;;35.25;23.50;;;6.60;99.90;;;7.41;100.00;97423.19;5041238;27;119449;-62
2022/04/07 04:04:43;;;;;;;32.22;22.30;;;6.60;99.90;;;7.38;100.00;97424.66;5022787;27;120373;-62
2022/04/07 04:07:12;;;;;;;36.55;22.17;;;6.60;99.90;;;7.44;100.00;97427.91;5025666;27;129812;-62
2022/04/07 04:09:41;;;;;;;32.30;22.90;;;6.70;99.90;;;7.47;100.00;97427.22;5040953;27;130061;-63
2022/04/07 04:12:10;;;;;;;32.95;22.58;;;6.70;99.90;;;7.58;100.00;97426.75;5021565;27;119725;-61
2022/04/07 04:14:39;;;;;;;30.08;21.38;;;6.70;99.90;;;7.61;100.00;97415.28;5041129;27;119538;-62
2022/04/07 04:17:07;;;;;;;33.17;22.20;;;6.70;99.90;;;7.61;100.00;97415.28;5040893;27;130423;-63
2022/04/07 04:19:36;;;;;;;29.98;21.17;;;6.70;99.90;;;7.51;100.00;97411.94;5040516;27;129970;-62
2022/04/07 04:22:05;;;;;;;29.90;21.00;;;6.80;99.90;;;7.68;100.00;97410.06;5021115;27;122245;-62
2022/04/07 04:24:35;;;;;;;29.92;20.58;;;6.80;99.90;;;7.64;100.00;97404.56;5025068;27;121522;-63
2022/04/07 04:27:05;;;;;;;27.13;20.05;;;6.90;99.90;;;7.74;100.00;97387.09;5040260;27;130319;-62
2022/04/07 04:29:33;;;;;;;29.40;21.92;;;6.90;99.90;;;7.86;100.00;97405.94;5039992;27;130041;-62
2022/04/07 04:32:02;;;;;;;27.83;21.38;;;7.00;99.90;;;8.02;100.00;97418.69;5041489;27;120362;-63
2022/04/07 04:34:30;;;;;;;29.55;22.08;;;7.00;99.90;;;7.98;100.00;97401.59;5040775;27;119818;-62
2022/04/07 04:36:59;;;;;;;30.40;23.52;;;7.10;99.90;;;8.19;100.00;97412.97;5025776;27;129646;-64
2022/04/07 04:39:27;;;;;;;28.25;20.05;;;7.20;99.90;;;8.24;100.00;97410.03;5040865;27;129619;-65
2022/04/07 04:41:57;;;;;;;54.50;34.88;;;7.30;99.90;;;8.36;100.00;97413.78;5022967;27;119735;-63
2022/04/07 04:44:26;;;;;;;32.42;22.63;;;7.40;99.90;;;8.46;100.00;97405.19;5025831;27;119182;-62
2022/04/07 04:46:55;;;;;;;69.40;46.92;;;7.40;99.90;;;8.56;100.00;97399.25;5008891;27;128722;-63
2022/04/07 04:49:23;;;;;;;28.98;20.98;;;7.50;99.90;;;8.63;100.00;97409.47;5008714;27;129960;-62
2022/04/07 04:51:52;;;;;;;49.40;37.88;;;7.50;99.90;;;8.68;100.00;97405.72;5040571;27;119681;-63
2022/04/07 04:54:20;;;;;;;34.83;26.85;;;7.60;99.90;;;8.72;99.98;97401.19;5040722;27;119315;-63
2022/04/07 04:56:49;;;;;;;25.50;18.75;;;7.60;95.30;;;8.58;100.00;97394.28;5038809;27;129691;-62
2022/04/07 04:59:19;;;;;;;28.42;19.75;;;7.60;86.10;;;8.61;100.00;97390.88;5025365;27;128343;-62
2022/04/07 05:01:48;;;;;;;26.08;19.58;;;7.70;77.70;;;8.79;100.00;97385.13;5025621;27;118797;-63
2022/04/07 05:04:16;;;;;;;22.73;17.90;;;7.70;75.90;;;8.86;99.15;97398.03;5025619;27;119283;-62
2022/04/07 05:06:45;;;;;;;24.60;18.33;;;7.80;62.20;;;8.82;99.39;97397.97;5040244;27;129844;-63
2022/04/07 05:09:13;;;;;;;22.83;17.58;;;7.80;56.10;;;8.95;98.83;97404.03;5039868;27;130467;-62
2022/04/07 05:11:42;;;;;;;20.40;16.50;;;7.90;50.50;;;9.04;98.13;97401.13;5007439;27;120991;-62
2022/04/07 05:14:10;;;;;;;20.50;16.58;;;7.90;44.90;;;8.98;98.29;97398.69;5040203;27;121657;-62
2022/04/07 05:16:40;;;;;;;20.58;15.65;;;7.90;37.70;;;9.02;98.15;97395.28;5039744;27;129837;-62
2022/04/07 05:19:09;;;;;;;19.30;16.00;;;8.00;34.20;;;9.10;97.82;97388.91;5040092;27;130073;-62
2022/04/07 05:21:37;;;;;;;19.55;15.95;;;8.00;30.30;;;9.34;96.81;97394.06;5043116;27;119867;-64
2022/04/07 05:24:07;;;;;;;19.00;15.23;;;8.10;28.40;;;9.32;96.44;97406.41;5040305;27;119617;-61
2022/04/07 05:26:35;;;;;;;19.50;14.80;;;8.10;21.50;;;9.56;95.60;97394.50;5040104;27;130640;-62
2022/04/07 05:29:04;;;;;;;21.23;16.42;;;8.20;19.70;;;9.58;95.08;97392.22;5040246;27;130320;-62
2022/04/07 05:31:33;;;;;;;21.65;17.38;;;8.30;11.80;;;9.68;94.65;97391.66;5040409;27;119601;-62
2022/04/07 05:34:02;;;;;;;20.23;16.67;;;8.30;9.80;;;9.44;95.03;97381.13;5039764;27;119977;-64
2022/04/07 05:36:31;;;;;;;23.23;17.90;;;8.30;3.00;;;9.51;95.16;97383.97;5036136;27;129883;-63
2022/04/07 05:38:59;;;;;;;18.55;15.30;;;8.30;4.70;;;9.59;94.79;97382.19;5026874;27;130574;-62
2022/04/07 05:41:28;;;;;;;18.83;15.75;;;8.30;3.50;;;9.46;95.15;97392.38;5019494;28;119710;-63
2022/04/07 05:43:56;;;;;;;17.60;14.45;;;8.30;1.00;;;9.71;94.20;97382.81;5029505;27;120324;-62
2022/04/07 05:46:25;;;;;;;18.42;15.38;;;8.40;3.40;;;9.62;94.46;97387.69;5039309;27;129787;-62
2022/04/07 05:48:54;;;;;;;20.45;15.85;;;8.40;1.00;;;9.93;93.79;97379.75;5019772;27;129272;-63
2022/04/07 05:51:25;;;;;;;25.02;18.45;;;8.60;1.00;;;9.97;92.66;97381.41;5013134;27;119579;-63
2022/04/07 05:53:53;;;;;;;27.33;21.10;;;8.70;1.00;;;10.20;92.14;97381.41;5042085;27;119534;-62
2022/04/07 05:56:22;;;;;;;16.60;13.10;;;8.80;1.00;;;10.28;91.74;97382.31;5042964;27;129860;-64
2022/04/07 05:58:50;;;;;;;17.42;13.40;;;8.90;1.00;;;10.62;90.16;97377.09;5038953;27;129857;-62
2022/04/07 06:01:19;;;;;;;18.42;15.18;;;9.00;1.00;;;10.98;88.94;97380.34;5036917;27;122024;-62
2022/04/07 06:03:47;;;;;;;18.10;13.60;;;9.30;1.00;;;10.86;88.60;97375.13;5039010;27;121941;-62
2022/04/07 06:06:15;;;;;;;17.52;14.38;;;9.30;1.00;;;11.01;87.71;97376.91;5023667;27;129601;-63
2022/04/07 06:08:45;;;;;;;14.90;13.23;;;9.40;1.00;;;10.75;87.60;97370.34;5038017;27;129422;-63
2022/04/07 06:11:14;;;;;;;19.73;14.32;;;9.30;1.00;;;10.72;88.56;97364.84;5038931;27;120326;-64
2022/04/07 06:13:43;;;;;;;15.13;12.25;;;9.30;1.00;;;10.66;88.69;97367.09;5041072;27;119880;-63
2022/04/07 06:16:12;;;;;;;17.70;13.82;;;9.30;1.00;;;11.13;87.13;97376.69;5038622;27;130373;-64
2022/04/07 06:18:40;;;;;;;15.30;12.77;;;9.50;1.00;;;11.13;86.77;97373.97;5024213;27;129795;-64
2022/04/07 06:21:09;;;;;;;13.65;11.93;;;9.60;1.00;;;11.50;85.26;97364.38;5040336;27;119406;-64
2022/04/07 06:23:39;;;;;;;16.77;13.57;;;9.70;1.00;;;11.59;84.65;97364.06;5024600;27;118585;-63
2022/04/07 06:26:09;;;;;;;14.02;11.20;;;9.90;1.00;;;11.61;84.51;97369.91;5040734;27;129488;-63
2022/04/07 06:28:40;;;;;;;14.70;12.10;;;9.90;1.00;;;11.99;83.56;97365.31;5038905;27;129663;-64
2022/04/07 06:31:08;;;;;;;13.25;11.07;;;10.10;1.00;;;12.13;82.37;97370.91;5007283;27;119183;-65
2022/04/07 06:33:37;;;;;;;13.65;10.98;;;10.30;1.00;;;12.15;81.75;97371.31;5020285;27;120446;-63
2022/04/07 06:36:07;;;;;;;13.30;10.90;;;10.40;1.00;;;12.41;80.58;97377.78;5026121;27;130074;-63
2022/04/07 06:38:35;;;;;;;13.63;10.05;;;10.40;1.00;;;12.76;79.45;97371.84;5038277;27;130251;-63
2022/04/07 06:41:04;;;;;;;13.73;10.60;;;10.70;1.00;;;12.67;79.39;97367.84;5036833;27;119680;-63
2022/04/07 06:43:33;;;;;;;13.23;10.82;;;10.70;1.00;;;12.58;79.13;97377.13;5039061;27;119374;-64
2022/04/07 06:46:02;;;;;;;13.45;10.30;;;10.70;1.00;;;12.85;78.65;97374.22;5038067;27;130755;-65
2022/04/07 06:48:30;;;;;;;13.57;9.75;;;10.80;1.00;;;13.24;77.41;97375.63;5038697;27;129327;-63
2022/04/07 06:50:59;;;;;;;11.85;9.73;;;11.00;1.00;;;13.19;76.85;97370.56;5021455;27;121813;-64
2022/04/07 06:53:27;;;;;;;13.32;9.52;;;11.10;1.00;;;13.35;75.93;97373.78;5020253;27;121791;-64
2022/04/07 06:55:56;;;;;;;12.23;9.77;;;11.20;1.00;;;13.33;75.46;97364.41;5038162;27;130192;-64
2022/04/07 06:58:25;;;;;;;12.45;9.73;;;11.10;1.00;;;13.29;76.31;97367.91;5023087;27;128593;-63
2022/04/07 07:00:55;;;;;;;12.63;9.80;;;11.20;1.00;;;13.88;74.53;97356.06;5038216;27;119717;-63
2022/04/07 07:03:23;;;;;;;11.38;8.93;;;11.50;1.00;;;13.81;74.41;97358.78;5038449;27;119922;-63
2022/04/07 07:05:52;;;;;;;11.27;8.65;;;11.50;1.00;;;13.88;73.75;97353.34;5037575;27;130589;-64
2022/04/07 07:08:22;;;;;;;11.65;8.73;;;11.50;1.00;;;14.20;72.87;97355.38;5031998;27;129890;-63
2022/04/07 07:10:52;;;;;;;9.77;8.20;;;11.70;1.00;;;13.88;73.10;97356.06;5018456;28;119587;-64
2022/04/07 07:13:23;;;;;;;11.48;8.80;;;11.60;1.00;;;13.78;73.49;97348.66;5018386;28;119450;-64
2022/04/07 07:15:52;;;;;;;13.65;9.02;;;11.50;1.00;;;13.87;73.70;97349.06;5016761;28;130494;-66
2022/04/07 07:18:22;;;;;;;11.45;8.98;;;11.50;1.00;;;14.00;73.86;97352.22;5016528;28;129686;-64
2022/04/07 07:20:52;;;;;;;11.55;8.50;;;11.60;1.00;;;14.15;73.53;97353.81;4999317;28;118680;-65
2022/04/07 07:23:20;;;;;;;10.95;8.35;;;11.70;1.00;;;14.22;72.18;97354.97;4998098;28;120305;-64
2022/04/07 07:25:49;;;;;;;11.93;8.90;;;11.80;1.00;;;14.38;71.83;97350.72;4997611;28;129913;-64
2022/04/07 07:28:18;;;;;;;10.82;8.55;;;11.90;1.00;;;14.65;71.74;97350.34;4996289;28;130091;-65
2022/04/07 07:30:46;;;;;;;11.20;9.00;;;12.20;1.00;;;14.97;69.53;97352.25;4998000;28;119568;-63
2022/04/07 07:33:15;;;;;;;10.50;8.10;;;12.30;1.00;;;15.29;68.56;97351.41;4998430;28;119525;-64
2022/04/07 07:35:46;;;;;;;12.02;8.88;;;12.60;1.00;;;15.22;68.47;97356.88;4995705;28;129957;-65
2022/04/07 07:38:15;;;;;;;10.90;8.70;;;12.60;1.00;;;15.22;68.52;97348.69;4997455;28;129255;-65
2022/04/07 07:40:44;;;;;;;10.77;8.10;;;12.60;1.00;;;15.49;67.02;97340.00;4995165;28;122895;-65
2022/04/07 07:43:12;;;;;;;10.05;7.40;;;12.80;1.00;;;15.62;67.18;97341.13;4999654;28;121797;-65
2022/04/07 07:45:41;;;;;;;9.10;7.80;;;13.00;1.00;;;15.87;65.98;97334.78;4997816;28;129981;-66
2022/04/07 07:48:09;;;;;;;11.38;8.07;;;13.00;1.00;;;15.60;66.96;97338.78;4996360;28;129610;-65
2022/04/07 07:50:41;;;;;;;11.45;8.02;;;12.90;1.00;;;15.69;66.06;97334.84;4998123;28;119792;-64
2022/04/07 07:53:14;;;;;;;10.25;8.45;;;13.00;1.00;;;15.58;66.77;97334.91;4998104;28;119376;-63
2022/04/07 07:55:42;;;;;;;11.52;8.68;;;13.00;1.00;;;16.11;65.70;97333.88;4997614;28;130014;-65
2022/04/07 07:58:11;;;;;;;11.50;8.63;;;13.30;1.00;;;16.30;63.34;97335.28;4997815;28;129326;-66
2022/04/07 08:00:39;;;;;;;10.75;8.57;;;13.20;1.00;;;16.43;63.62;97329.34;4997855;28;119423;-63
2022/04/07 08:03:09;;;;;;;13.30;9.02;;;13.60;1.00;;;16.65;62.58;97333.44;5000216;28;120143;-66
2022/04/07 08:05:37;;;;;;;11.93;7.90;;;13.50;1.00;;;16.69;61.60;97327.94;5000051;28;129748;-64
2022/04/07 08:08:06;;;;;;;12.77;8.57;;;13.50;1.00;;;16.34;63.21;97325.09;4999935;28;130719;-66
2022/04/07 08:10:36;;;;;;;10.48;8.60;;;13.50;1.00;;;16.35;62.98;97320.41;5001096;28;119623;-66
2022/04/07 08:13:04;;;;;;;11.95;8.57;;;13.70;1.00;;;16.33;63.20;97318.06;4999631;28;119458;-63
2022/04/07 08:15:34;;;;;;;10.15;8.65;;;13.60;1.00;;;16.14;63.76;97313.91;5000439;28;130017;-65
2022/04/07 08:18:03;;;;;;;10.18;8.55;;;13.50;1.00;;;16.40;61.67;97311.75;5000435;28;129755;-65
2022/04/07 08:20:31;;;;;;;10.68;8.02;;;13.60;1.00;;;16.21;62.45;97309.56;5002544;28;119984;-64
2022/04/07 08:23:00;;;;;;;11.35;9.00;;;13.50;1.00;;;16.37;62.76;97320.00;5001099;28;119802;-63
2022/04/07 08:25:28;;;;;;;11.90;8.40;;;13.70;1.00;;;16.44;62.74;97312.50;5002299;28;129547;-63
2022/04/07 08:27:58;;;;;;;10.00;8.30;;;13.80;1.00;;;15.96;63.45;97321.47;4999540;28;131368;-64
2022/04/07 08:30:27;;;;;;;13.38;9.88;;;13.60;1.00;;;15.40;65.79;97308.41;5001286;28;121206;-64
2022/04/07 08:32:56;;;;;;;12.02;8.93;;;13.20;1.00;;;15.60;65.10;97302.50;5000610;28;122448;-63
2022/04/07 08:35:24;;;;;;;16.70;10.50;;;13.20;1.00;;;15.63;65.96;97304.44;5000392;28;129669;-64
2022/04/07 08:37:53;;;;;;;34.90;17.42;;;13.30;1.00;;;15.62;65.46;97308.31;5002041;28;128374;-63
2022/04/07 08:40:23;;;;;;;46.78;17.65;;;13.30;1.00;;;15.90;64.36;97306.66;5000640;28;120233;-64
2022/04/07 08:42:51;;;;;;;55.05;24.45;;;13.40;1.00;;;15.94;64.19;97307.38;5000652;28;120117;-64
2022/04/07 08:45:22;;;;;;;39.63;18.77;;;13.50;1.00;;;15.65;64.93;97296.59;5000280;28;129906;-64
2022/04/07 08:47:51;;;;;;;13.32;11.05;;;13.40;1.00;;;16.17;63.25;97306.84;5002544;28;129400;-64
2022/04/07 08:50:23;;;;;;;11.80;8.60;;;13.50;1.00;;;16.22;63.62;97300.16;5000585;28;119668;-64
2022/04/07 08:52:53;;;;;;;10.80;8.65;;;13.70;1.00;;;16.65;61.94;97299.81;5000639;28;119775;-65
2022/04/07 08:55:22;;;;;;;10.95;8.07;;;13.90;1.00;;;17.07;61.19;97300.59;4999253;28;131090;-65
2022/04/07 08:57:50;;;;;;;11.05;8.13;;;14.20;1.00;;;17.24;59.93;97285.91;5002091;28;128529;-64
2022/04/07 09:00:21;;;;;;;10.43;7.90;;;14.30;1.00;;;17.05;61.14;97289.28;5003212;28;121110;-64
2022/04/07 09:02:49;;;;;;;10.93;8.38;;;14.30;1.00;;;16.77;61.46;97291.09;5002315;28;118171;-64
2022/04/07 09:05:24;;;;;;;9.75;7.55;;;14.20;1.00;;;16.92;61.54;97282.75;4999848;28;131221;-64
2022/04/07 09:07:54;;;;;;;10.50;7.88;;;14.20;1.00;;;17.70;59.62;97272.00;5001866;28;129211;-65
2022/04/07 09:10:28;;;;;;;10.60;8.13;;;14.70;1.00;;;17.80;59.08;97276.56;4999932;28;119763;-65
2022/04/07 09:13:05;;;;;;;10.82;8.23;;;14.90;1.00;;;17.99;57.98;97271.63;5000528;28;119503;-66
2022/04/07 09:15:36;;;;;;;12.07;8.68;;;15.10;1.00;;;17.37;59.47;97277.13;4998901;28;129789;-66
2022/04/07 09:18:05;;;;;;;10.40;7.97;;;14.70;1.00;;;16.58;61.57;97283.44;5001031;28;129682;-63
2022/04/07 09:20:43;;;;;;;12.20;9.15;;;14.30;1.00;;;17.07;60.75;97284.16;5010445;28;122173;-63
2022/04/07 09:23:13;;;;;;;12.73;7.68;;;14.30;1.00;;;16.29;62.31;97283.69;5019821;28;122564;-63
2022/04/07 09:25:47;;;;;;;13.25;9.23;;;14.00;1.00;;;16.06;64.08;97278.78;5019313;28;130511;-64
2022/04/07 09:28:30;;;;;;;12.63;8.90;;;13.70;1.00;;;15.31;66.35;97283.47;5023764;28;102709;-64
2022/04/07 09:31:01;;;;;;;10.50;8.63;;;13.30;1.00;;;15.04;67.35;97285.94;5019822;28;119626;-64
2022/04/07 09:33:31;;;;;;;13.52;8.27;;;13.10;1.00;;;14.84;68.32;97282.84;5019523;28;119411;-63
2022/04/07 09:36:02;;;;;;;11.32;8.70;;;12.90;1.00;;;14.39;69.82;97281.31;5004543;28;128912;-63
2022/04/07 09:38:31;;;;;;;13.40;9.20;;;12.70;1.00;;;14.16;71.50;97289.09;5019879;28;130170;-64
2022/04/07 09:41:11;;;;;;;16.52;10.60;;;12.50;1.00;;;14.31;71.34;97279.75;5019483;28;119895;-65
2022/04/07 09:43:45;;;;;;;28.83;17.80;;;12.70;1.00;;;14.83;69.78;97292.22;5019775;28;119859;-65
2022/04/07 09:46:17;;;;;;;14.32;10.60;;;12.90;1.00;;;15.00;69.99;97291.38;5017981;28;131338;-64
2022/04/07 09:49:01;;;;;;;12.40;9.05;;;13.00;1.00;;;15.48;67.51;97289.28;5021167;28;129228;-66
2022/04/07 09:51:36;;;;;;;16.10;9.88;;;13.10;1.00;;;15.85;67.06;97287.91;5019454;28;119563;-63
2022/04/07 09:54:10;;;;;;;39.58;24.77;;;13.50;1.00;;;16.21;65.26;97282.97;5019835;28;119415;-65
2022/04/07 09:56:39;;;;;;;20.90;11.93;;;13.80;1.00;;;16.01;65.64;97280.00;5019243;28;129882;-64
2022/04/07 09:59:09;;;;;;;13.55;9.93;;;13.60;1.00;;;15.79;67.17;97279.34;5018925;28;129972;-65
2022/04/07 10:01:39;;;;;;;16.77;13.55;;;13.40;1.00;;;16.14;65.90;97277.53;5018355;28;119252;-63
2022/04/07 10:04:09;;;;;;;40.42;21.30;;;13.50;1.00;;;16.10;66.08;97265.88;5004996;28;119821;-63
2022/04/07 10:06:39;;;;;;;21.73;14.15;;;13.40;1.00;;;16.10;65.93;97263.91;5029496;27;129755;-65
2022/04/07 10:09:11;;;;;;;10.10;8.52;;;13.60;1.00;;;15.80;66.81;97265.28;5039144;27;130242;-64
2022/04/07 10:11:40;;;;;;;14.50;10.05;;;13.30;1.00;;;16.10;66.62;97255.69;5040926;27;124273;-65
2022/04/07 10:14:10;;;;;;;10.50;8.30;;;13.50;1.00;;;16.62;65.40;97248.59;5039280;27;121945;-64
2022/04/07 10:16:40;;;;;;;9.35;7.97;;;13.80;1.00;;;17.29;62.73;97242.78;5020462;27;129954;-65
2022/04/07 10:19:17;;;;;;;10.75;8.25;;;14.20;1.00;;;16.74;63.85;97247.31;5039042;27;129527;-65